»·PEaware :: COA581 KLAS-KSNA

COA581 :: KLAS-KSNA

FLIGHT INFORMATION

Flight Status: Arrived
Operator:
Continental Air Lines
More flights by this operator :: More flights under this callsign
Pilot: John L. (29598)
Aircraft: BOEING 737-700
(B737)
More flights by this aircraft type
Origin: KLAS McCarran Intl
United States
Destination: KSNA John Wayne-Orange Co
United States
More flights between these airports :: More routes between these airports
Route: BOACH8 WHIGG FEYLA DSNEE4
File this flight plan on PilotEdge
Remarks:
Altitude:
(Current/Filed)
34,000ft
Speed:
(Current/Filed)
460kts
Departed: 09-Jan-21 10:11 PM
Arrived: 09-Jan-21 10:51 PM
Distance/Time
Traveled:
197nm/0:40
Distance/Time
To Go:
Arrived

Flight Plot

Page will automatically refresh every two minutes.

Flight plan parsing failed; only flown route is shown


Map Options




Map Legend


Flown Route
Filed Route
Departure Airport
Arrival Airport
Navaid (VOR, NDB)
Fix

Horizontal Profiles

Position Reports

Time Latitude Longitude Heading Altitude Ground
Speed
09-Jan-21 21:26 36.080648 -115.140660 125 2186ft 0kts
09-Jan-21 21:27 36.080648 -115.140660 125 2186ft 0kts
09-Jan-21 21:28 36.080648 -115.140660 125 2186ft 0kts
09-Jan-21 21:29 36.080648 -115.140660 125 2186ft 0kts
09-Jan-21 21:30 36.080648 -115.140660 125 2186ft 0kts
09-Jan-21 21:31 36.080648 -115.140660 125 2186ft 0kts
09-Jan-21 21:32 36.080648 -115.140660 125 2186ft 0kts
09-Jan-21 21:33 36.080648 -115.140660 125 2186ft 0kts
09-Jan-21 21:34 36.080648 -115.140660 125 2186ft 0kts
09-Jan-21 21:35 36.080648 -115.140660 125 2186ft 0kts
09-Jan-21 21:36 36.080648 -115.140660 125 2186ft 0kts
09-Jan-21 21:37 36.080648 -115.140660 125 2186ft 0kts
09-Jan-21 21:38 36.080648 -115.140660 125 2186ft 0kts
09-Jan-21 21:39 36.080648 -115.140660 125 2186ft 0kts
09-Jan-21 21:40 36.080648 -115.140660 125 2186ft 0kts
09-Jan-21 21:41 36.080648 -115.140660 125 2186ft 0kts
09-Jan-21 21:42 36.080648 -115.140660 125 2186ft 0kts
09-Jan-21 21:43 36.080648 -115.140660 125 2186ft 0kts
09-Jan-21 21:44 36.080648 -115.140660 125 2186ft 0kts
09-Jan-21 21:45 36.080648 -115.140660 125 2186ft 0kts
09-Jan-21 21:46 36.080648 -115.140660 125 2186ft 0kts
09-Jan-21 21:47 36.080869 -115.141046 125 2186ft 2kts
09-Jan-21 21:48 36.081217 -115.141650 125 2186ft 2kts
09-Jan-21 21:49 36.081508 -115.141941 179 2186ft 0kts
09-Jan-21 21:50 36.081508 -115.141941 179 2186ft 0kts
09-Jan-21 21:51 36.079366 -115.142415 180 2186ft 12kts
09-Jan-21 21:52 36.078975 -115.142415 179 2186ft 0kts
09-Jan-21 21:53 36.078911 -115.142414 179 2186ft 3kts
09-Jan-21 21:54 36.078284 -115.140268 89 2186ft 13kts
09-Jan-21 21:55 36.078296 -115.134508 89 2186ft 18kts
09-Jan-21 21:56 36.078315 -115.126487 89 2186ft 23kts
09-Jan-21 21:57 36.077486 -115.121395 135 2186ft 0kts
09-Jan-21 21:58 36.077474 -115.121382 137 2186ft 1kts
09-Jan-21 21:59 36.076704 -115.125866 328 2186ft 16kts
09-Jan-21 22:00 36.077392 -115.125995 3 2186ft 0kts
09-Jan-21 22:01 36.077392 -115.125995 3 2186ft 0kts
09-Jan-21 22:02 36.077392 -115.125995 3 2186ft 0kts
09-Jan-21 22:03 36.077392 -115.125995 3 2186ft 0kts
09-Jan-21 22:04 36.077392 -115.125995 3 2186ft 0kts
09-Jan-21 22:05 36.077392 -115.125995 3 2186ft 0kts
09-Jan-21 22:06 36.077392 -115.125995 3 2186ft 0kts
09-Jan-21 22:07 36.077550 -115.121496 117 2186ft 7kts
09-Jan-21 22:08 36.077507 -115.121424 131 2186ft 0kts
09-Jan-21 22:10 36.077507 -115.121424 131 2186ft 0kts
09-Jan-21 22:11 36.076446 -115.132719 269 2186ft 142kts
09-Jan-21 22:12 36.075874 -115.194052 262 4243ft 223kts
09-Jan-21 22:13 36.039138 -115.267150 213 7286ft 280kts
09-Jan-21 22:14 35.964032 -115.302185 191 10586ft 313kts
09-Jan-21 22:15 35.867288 -115.313797 185 12852ft 376kts
09-Jan-21 22:16 35.759259 -115.304156 179 15976ft 404kts
09-Jan-21 22:17 35.652788 -115.341130 221 19299ft 397kts
09-Jan-21 22:18 35.574807 -115.433728 235 22365ft 380kts
09-Jan-21 22:19 35.505226 -115.527328 236 25632ft 364kts
09-Jan-21 22:20 35.440542 -115.614389 237 29201ft 325kts
09-Jan-21 22:21 35.378984 -115.697658 236 30532ft 348kts
09-Jan-21 22:22 35.312322 -115.787092 236 32174ft 360kts
09-Jan-21 22:23 35.244286 -115.878245 236 33786ft 368kts
09-Jan-21 22:24 35.171799 -115.971085 233 34268ft 394kts
09-Jan-21 22:24 35.105577 -116.054537 232 34275ft 428kts
09-Jan-21 22:26 35.005167 -116.180678 232 34285ft 450kts
09-Jan-21 22:27 34.917224 -116.290871 232 31896ft 454kts
09-Jan-21 22:27 34.845040 -116.381756 232 29586ft 446kts
09-Jan-21 22:28 34.761964 -116.487581 232 27218ft 422kts
09-Jan-21 22:30 34.667878 -116.600080 225 24927ft 395kts
09-Jan-21 22:30 34.597699 -116.668346 224 23216ft 383kts
09-Jan-21 22:31 34.512969 -116.751144 224 21130ft 386kts
09-Jan-21 22:32 34.437166 -116.837470 229 19063ft 366kts
09-Jan-21 22:33 34.364732 -116.921539 229 16893ft 357kts
09-Jan-21 22:34 34.294155 -117.002884 228 14879ft 345kts
09-Jan-21 22:35 34.215165 -117.071197 214 14048ft 353kts
09-Jan-21 22:36 34.129001 -117.125456 207 13053ft 355kts
09-Jan-21 22:37 34.039238 -117.173349 207 12877ft 345kts
09-Jan-21 22:38 33.966588 -117.238957 231 11337ft 324kts
09-Jan-21 22:39 33.908047 -117.320310 231 10018ft 308kts
09-Jan-21 22:40 33.882047 -117.410358 261 8127ft 279kts
09-Jan-21 22:41 33.876696 -117.500484 281 5845ft 269kts
09-Jan-21 22:42 33.889873 -117.587963 282 5004ft 266kts
09-Jan-21 22:43 33.901997 -117.666431 281 4615ft 222kts
09-Jan-21 22:44 33.885331 -117.726090 231 4014ft 190kts
09-Jan-21 22:45 33.842614 -117.762924 207 3593ft 185kts
09-Jan-21 22:46 33.799045 -117.790547 206 2672ft 168kts
09-Jan-21 22:47 33.762817 -117.813584 207 1887ft 137kts
09-Jan-21 22:48 33.729538 -117.834698 207 1129ft 135kts
09-Jan-21 22:49 33.696635 -117.855730 207 409ft 133kts
09-Jan-21 22:50 33.670688 -117.872013 206 64ft 35kts
09-Jan-21 22:51 33.669182 -117.871621 125 64ft 0kts
09-Jan-21 22:52 33.671348 -117.868671 35 64ft 15kts
09-Jan-21 22:53 33.675449 -117.865634 27 64ft 6kts
09-Jan-21 22:54 33.675373 -117.864878 118 64ft 0kts

Navigation Log

Ident Type
Flight plan parsing failed, navigation log unavailable